Home > Products > Valid Products > TAF

000
FTUS43 KICT 051720
TAFCNU
TAF
KCNU 051720Z 0518/0618 VRB05KT P6SM SKC
     FM061300 21012KT P6SM SKC=



000
FTUS43 KICT 051720
TAFSLN
TAF
KSLN 051720Z 0518/0618 18008KT P6SM SKC=



000
FTUS43 KICT 051720
TAFRSL
TAF
KRSL 051720Z 0518/0618 24007KT P6SM SKC=



000
FTUS43 KICT 051720
TAFHUT
TAF
KHUT 051720Z 0518/0618 24013KT P6SM SKC
     FM060000 18006KT P6SM SKC=



000
FTUS43 KICT 051720
TAFICT
TAF
KICT 051720Z 0518/0618 22011KT P6SM SKC
     FM060000 18006KT P6SM SKC=



000
FTUS43 KICT 051131
TAFSLN
TAF
KSLN 051131Z 0512/0612 VRB03KT P6SM SKC
     FM051700 16012KT P6SM SKC
     FM060800 22010KT P6SM SCT250=



000
FTUS43 KICT 051131
TAFCNU
TAF
KCNU 051131Z 0512/0612 02005KT P6SM SKC
     FM051800 09005KT P6SM SKC
     FM060000 15005KT P6SM SKC
     FM060900 19008KT P6SM SCT250=



000
FTUS43 KICT 051131
TAFRSL
TAF
KRSL 051131Z 0512/0612 VRB03KT P6SM SKC
     FM051900 20011KT P6SM SCT150
     FM060700 23008KT P6SM SCT200=



000
FTUS43 KICT 051131
TAFICT
TAF
KICT 051131Z 0512/0612 VRB03KT P6SM SKC
     FM051800 17007KT P6SM SKC
     FM060800 20008KT P6SM SCT250=



000
FTUS43 KICT 051131
TAFHUT
TAF
KHUT 051131Z 0512/0612 VRB03KT P6SM SKC
     FM051800 17007KT P6SM SKC
     FM060800 20008KT P6SM SCT250=



000
FTUS43 KICT 051131
TAFCNU
TAF
KCNU 051131Z 0512/0612 02005KT P6SM SKC
     FM051800 09005KT P6SM SKC
     FM060000 15005KT P6SM SKC
     FM060900 19008KT P6SM SCT250=



000
FTUS43 KICT 051131
TAFICT
TAF
KICT 051131Z 0512/0612 VRB03KT P6SM SKC
     FM051800 17007KT P6SM SKC
     FM060800 20008KT P6SM SCT250=



000
FTUS43 KICT 051131
TAFRSL
TAF
KRSL 051131Z 0512/0612 VRB03KT P6SM SKC
     FM051900 20011KT P6SM SCT150
     FM060700 23008KT P6SM SCT200=



000
FTUS43 KICT 051131
TAFHUT
TAF
KHUT 051131Z 0512/0612 VRB03KT P6SM SKC
     FM051800 17007KT P6SM SKC
     FM060800 20008KT P6SM SCT250=



000
FTUS43 KICT 051131
TAFSLN
TAF
KSLN 051131Z 0512/0612 VRB03KT P6SM SKC
     FM051700 16012KT P6SM SKC
     FM060800 22010KT P6SM SCT250=



000
FTUS43 KICT 050520
TAFRSL
TAF
KRSL 050520Z 0506/0606 24006KT P6SM SKC
     FM051900 22011G17KT P6SM SKC
     FM052100 22010KT P6SM SKC=



000
FTUS43 KICT 050520
TAFCNU
TAF
KCNU 050520Z 0506/0606 VRB03KT P6SM SCT100 BKN250
     FM051800 19009KT P6SM BKN250
     FM060000 15005KT P6SM BKN250=



000
FTUS43 KICT 050520
TAFICT
TAF
KICT 050520Z 0506/0606 VRB03KT P6SM BKN250
     FM051800 19009KT P6SM BKN250
     FM060000 18008KT P6SM SKC=



000
FTUS43 KICT 050520
TAFRSL
TAF
KRSL 050520Z 0506/0606 24006KT P6SM SKC
     FM051900 22011G17KT P6SM SKC
     FM052100 22010KT P6SM SKC=



000
FTUS43 KICT 050520
TAFSLN
TAF
KSLN 050520Z 0506/0606 VRB03KT P6SM BKN250
     FM051900 22011G17KT P6SM SKC
     FM052100 22010KT P6SM SKC=



000
FTUS43 KICT 050520
TAFSLN
TAF
KSLN 050520Z 0506/0606 VRB03KT P6SM BKN250
     FM051900 22011G17KT P6SM SKC
     FM052100 22010KT P6SM SKC=



000
FTUS43 KICT 050520
TAFCNU
TAF
KCNU 050520Z 0506/0606 VRB03KT P6SM SCT100 BKN250
     FM051800 19009KT P6SM BKN250
     FM060000 15005KT P6SM BKN250=



000
FTUS43 KICT 050520
TAFHUT
TAF
KHUT 050520Z 0506/0606 VRB03KT P6SM BKN250
     FM051800 19009KT P6SM BKN250
     FM060000 18008KT P6SM SKC=



000
FTUS43 KICT 050520
TAFHUT
TAF
KHUT 050520Z 0506/0606 VRB03KT P6SM BKN250
     FM051800 19009KT P6SM BKN250
     FM060000 18008KT P6SM SKC=



000
FTUS43 KICT 050520
TAFICT
TAF
KICT 050520Z 0506/0606 VRB03KT P6SM BKN250
     FM051800 19009KT P6SM BKN250
     FM060000 18008KT P6SM SKC=



000
FTUS43 KICT 042320
TAFICT
TAF
KICT 042320Z 0500/0524 02014KT P6SM BKN100
     FM050200 02006KT P6SM SCT100 BKN250
     FM051800 19009KT P6SM BKN250=



000
FTUS43 KICT 042320
TAFICT
TAF
KICT 042320Z 0500/0524 02014KT P6SM BKN100
     FM050200 02006KT P6SM SCT100 BKN250
     FM051800 19009KT P6SM BKN250=



000
FTUS43 KICT 042320
TAFCNU
TAF
KCNU 042320Z 0500/0524 02010KT P6SM BKN100
     FM050200 02006KT P6SM SCT100 BKN250
     FM051800 19009KT P6SM BKN250=



000
FTUS43 KICT 042320
TAFRSL
TAF
KRSL 042320Z 0500/0524 01008KT P6SM SKC
     FM051900 22011G17KT P6SM SKC
     FM052100 22010KT P6SM SKC=



000
FTUS43 KICT 042320
TAFHUT
TAF
KHUT 042320Z 0500/0524 02008KT P6SM BKN100
     FM050200 02006KT P6SM SCT100 BKN250
     FM051800 19009KT P6SM BKN250=



000
FTUS43 KICT 042320
TAFSLN
TAF
KSLN 042320Z 0500/0524 01010KT P6SM BKN250
     FM051900 22011G17KT P6SM SKC
     FM052100 22010KT P6SM SKC=



000
FTUS43 KICT 042320
TAFSLN
TAF
KSLN 042320Z 0500/0524 01010KT P6SM BKN250
     FM051900 22011G17KT P6SM SKC
     FM052100 22010KT P6SM SKC=



000
FTUS43 KICT 042320
TAFHUT
TAF
KHUT 042320Z 0500/0524 02008KT P6SM BKN100
     FM050200 02006KT P6SM SCT100 BKN250
     FM051800 19009KT P6SM BKN250=



000
FTUS43 KICT 042320
TAFRSL
TAF
KRSL 042320Z 0500/0524 01008KT P6SM SKC
     FM051900 22011G17KT P6SM SKC
     FM052100 22010KT P6SM SKC=



000
FTUS43 KICT 042320
TAFCNU
TAF
KCNU 042320Z 0500/0524 02010KT P6SM BKN100
     FM050200 02006KT P6SM SCT100 BKN250
     FM051800 19009KT P6SM BKN250=



000
FTUS43 KICT 041724
TAFHUT
TAF
KHUT 041724Z 0418/0518 02013G19KT P6SM SCT030 OVC090
     FM050000 36005KT P6SM BKN100=



000
FTUS43 KICT 041724
TAFICT
TAF
KICT 041724Z 0418/0518 01013KT P6SM SCT030 OVC080
     FM050000 36005KT P6SM BKN100=



000
FTUS43 KICT 041724
TAFSLN
TAF
KSLN 041724Z 0418/0518 01014KT P6SM SCT100
     FM050000 36005KT P6SM SKC=



000
FTUS43 KICT 041724
TAFICT
TAF
KICT 041724Z 0418/0518 01013KT P6SM SCT030 OVC080
     FM050000 36005KT P6SM BKN100=



000
FTUS43 KICT 041724
TAFSLN
TAF
KSLN 041724Z 0418/0518 01014KT P6SM SCT100
     FM050000 36005KT P6SM SKC=



000
FTUS43 KICT 041724
TAFRSL
TAF
KRSL 041724Z 0418/0518 36014KT P6SM SCT100
     FM050000 35005KT P6SM SKC=



000
FTUS43 KICT 041724
TAFRSL
TAF
KRSL 041724Z 0418/0518 36014KT P6SM SCT100
     FM050000 35005KT P6SM SKC=



000
FTUS43 KICT 041724
TAFCNU
TAF
KCNU 041724Z 0418/0518 02015G21KT 5SM -SN SCT025 OVC050
      TEMPO 0418/0420 2SM -SN SCT015 OVC025
     FM042100 02015G21KT P6SM SCT030 OVC080
     FM050000 01008KT P6SM BKN100=



000
FTUS43 KICT 041724
TAFHUT
TAF
KHUT 041724Z 0418/0518 02013G19KT P6SM SCT030 OVC090
     FM050000 36005KT P6SM BKN100=



000
FTUS43 KICT 041724
TAFCNU
TAF
KCNU 041724Z 0418/0518 02015G21KT 5SM -SN SCT025 OVC050
      TEMPO 0418/0420 2SM -SN SCT015 OVC025
     FM042100 02015G21KT P6SM SCT030 OVC080
     FM050000 01008KT P6SM BKN100=



000
FTUS43 KICT 041500 AAB
TAFCNU
TAF AMD
KCNU 041500Z 0415/0512 02015G22KT 4SM -SN SCT015 OVC030
      TEMPO 0415/0419 2SM -SN SCT009 OVC015
     FM042000 02015G22KT P6SM SCT035 BKN070
     FM042300 01008KT P6SM SCT035 BKN070
     FM050300 02007KT P6SM SCT120=



000
FTUS43 KICT 041455 AAB
TAFHUT
TAF AMD
KHUT 041455Z 0415/0512 02013G18KT P6SM SCT035 OVC070
     FM042300 35007KT P6SM SCT100=



000
FTUS43 KICT 041455 AAB
TAFHUT
TAF AMD
KHUT 041455Z 0415/0512 02013G18KT P6SM SCT035 OVC070
     FM042300 35007KT P6SM SCT100=



000
FTUS43 KICT 041451 AAB
TAFICT
TAF AMD
KICT 041451Z 0415/0512 02016G22KT 5SM -SN SCT015 OVC060
      TEMPO 0415/0416 1 1/2SM -SN BR OVC015
     FM041700 01015G20KT P6SM SCT030 OVC045
     FM050000 36007KT P6SM SCT100=



000
FTUS43 KICT 041327 AAA
TAFSLN
TAF AMD
KSLN 041327Z 0413/0512 01012KT P6SM OVC050
      TEMPO 0413/0415 6SM -SN BR SCT015 OVC030
     FM041600 36014KT P6SM SCT025 BKN100
     FM050000 36005KT P6SM SCT120=



000
FTUS43 KICT 041327 AAA
TAFSLN
TAF AMD
KSLN 041327Z 0413/0512 01012KT P6SM OVC050
      TEMPO 0413/0415 6SM -SN BR SCT015 OVC030
     FM041600 36014KT P6SM SCT025 BKN100
     FM050000 36005KT P6SM SCT120=



000
FTUS43 KICT 041325 AAA
TAFCNU
TAF AMD
KCNU 041325Z 0413/0512 01017G27KT 5SM -SN BR OVC030
      TEMPO 0413/0416 2SM -SN BR OVC015
     FM041900 02017G24KT P6SM SCT020 BKN040
     FM042300 01008KT P6SM SCT030 BKN070
     FM050300 02007KT P6SM SCT120=



000
FTUS43 KICT 041323 AAA
TAFHUT
TAF AMD
KHUT 041323Z 0413/0512 01014G23KT 6SM -SN OVC035
      TEMPO 0413/0415 3SM -SN BR OVC020
     FM041700 01016G21KT P6SM SCT030 OVC045
     FM042300 35007KT P6SM SCT100=



000
FTUS43 KICT 041322 AAA
TAFICT
TAF AMD
KICT 041322Z 0413/0512 02016G25KT 6SM -SN OVC035
      TEMPO 0413/0416 4SM -SN BR OVC020
     FM041800 01015G20KT P6SM SCT030 OVC045
     FM050000 36007KT P6SM SCT100=



000
FTUS43 KICT 041125
TAFCNU
TAF
KCNU 041125Z 0412/0512 01017G27KT 5SM -SN BR OVC030
      TEMPO 0412/0416 4SM -SNPL BR OVC020
     FM041900 02017G24KT P6SM SCT020 BKN040
     FM042300 01008KT P6SM SCT030 BKN070
     FM050300 02007KT P6SM SCT120=



000
FTUS43 KICT 041125
TAFHUT
TAF
KHUT 041125Z 0412/0512 01015G24KT 6SM -SN OVC030
      TEMPO 0412/0415 2SM -SN BR OVC013
     FM041700 01016G21KT P6SM SCT030 OVC045
     FM042300 35007KT P6SM SCT100=



000
FTUS43 KICT 041125
TAFICT
TAF
KICT 041125Z 0412/0512 02018G27KT 6SM -SN OVC030
      TEMPO 0412/0416 4SM -SN BR OVC016
     FM041800 01015G20KT P6SM SCT030 OVC045
     FM050000 36007KT P6SM SCT100=



000
FTUS43 KICT 041125
TAFRSL
TAF
KRSL 041125Z 0412/0512 02012KT P6SM OVC045
      TEMPO 0412/0414 6SM -SN BR SCT020 OVC030
     FM041600 35014KT P6SM SCT025 BKN100
     FM050000 34005KT P6SM SCT120=



000
FTUS43 KICT 041125
TAFSLN
TAF
KSLN 041125Z 0412/0512 01012KT P6SM OVC035
      TEMPO 0412/0414 6SM -SN BR SCT015 OVC030
     FM041600 36014KT P6SM SCT025 BKN100
     FM050000 36005KT P6SM SCT120=



000
FTUS43 KICT 041125
TAFICT
TAF
KICT 041125Z 0412/0512 02018G27KT 6SM -SN OVC030
      TEMPO 0412/0416 4SM -SN BR OVC016
     FM041800 01015G20KT P6SM SCT030 OVC045
     FM050000 36007KT P6SM SCT100=



000
FTUS43 KICT 041125
TAFHUT
TAF
KHUT 041125Z 0412/0512 01015G24KT 6SM -SN OVC030
      TEMPO 0412/0415 2SM -SN BR OVC013
     FM041700 01016G21KT P6SM SCT030 OVC045
     FM042300 35007KT P6SM SCT100=



000
FTUS43 KICT 041125
TAFCNU
TAF
KCNU 041125Z 0412/0512 01017G27KT 5SM -SN BR OVC030
      TEMPO 0412/0416 4SM -SNPL BR OVC020
     FM041900 02017G24KT P6SM SCT020 BKN040
     FM042300 01008KT P6SM SCT030 BKN070
     FM050300 02007KT P6SM SCT120=



000
FTUS43 KICT 041125
TAFSLN
TAF
KSLN 041125Z 0412/0512 01012KT P6SM OVC035
      TEMPO 0412/0414 6SM -SN BR SCT015 OVC030
     FM041600 36014KT P6SM SCT025 BKN100
     FM050000 36005KT P6SM SCT120=



000
FTUS43 KICT 041125
TAFRSL
TAF
KRSL 041125Z 0412/0512 02012KT P6SM OVC045
      TEMPO 0412/0414 6SM -SN BR SCT020 OVC030
     FM041600 35014KT P6SM SCT025 BKN100
     FM050000 34005KT P6SM SCT120=



000
FTUS43 KICT 041102 AAA
TAFCNU
TAF AMD
KCNU 041102Z 0411/0506 01017G27KT 5SM -SN BR OVC030
      TEMPO 0411/0415 4SM -SNPL BR OVC020
     FM042100 02011KT P6SM SCT020 BKN100=



000
FTUS43 KICT 041102 AAA
TAFCNU
TAF AMD
KCNU 041102Z 0411/0506 01017G27KT 5SM -SN BR OVC030
      TEMPO 0411/0415 4SM -SNPL BR OVC020
     FM042100 02011KT P6SM SCT020 BKN100=



000
FTUS43 KICT 041059 AAB
TAFHUT
TAF AMD
KHUT 041059Z 0411/0506 01017G26KT 6SM -SN OVC025
      TEMPO 0411/0414 2SM -SN OVC016
     FM041800 02013KT P6SM SCT020 BKN100
     FM050000 01007KT P6SM SCT120=



000
FTUS43 KICT 041059 AAD
TAFICT
TAF AMD
KICT 041059Z 0411/0506 02018G27KT 5SM -SN OVC025
      TEMPO 0411/0414 3SM -SN BR OVC012
     FM041900 02013KT P6SM SCT020 BKN100
     FM050000 01007KT P6SM SCT120=



000
FTUS43 KICT 041059 AAD
TAFICT
TAF AMD
KICT 041059Z 0411/0506 02018G27KT 5SM -SN OVC025
      TEMPO 0411/0414 3SM -SN BR OVC012
     FM041900 02013KT P6SM SCT020 BKN100
     FM050000 01007KT P6SM SCT120=



000
FTUS43 KICT 041059 AAB
TAFHUT
TAF AMD
KHUT 041059Z 0411/0506 01017G26KT 6SM -SN OVC025
      TEMPO 0411/0414 2SM -SN OVC016
     FM041800 02013KT P6SM SCT020 BKN100
     FM050000 01007KT P6SM SCT120=



000
FTUS43 KICT 040936 AAC
TAFICT
TAF AMD
KICT 040936Z 0410/0506 02020G30KT 5SM -SN OVC035
      TEMPO 0410/0413 2SM -SN BR OVC012
     FM041900 02013KT P6SM SCT020 BKN100
     FM050000 01007KT P6SM SCT120=



000
FTUS43 KICT 040909 AAB
TAFICT
TAF AMD
KICT 040909Z 0409/0506 02018G28KT 5SM -SN OVC035
      TEMPO 0409/0413 3SM -SN BR OVC020
     FM041900 02013KT P6SM SCT020 BKN100
     FM050000 01007KT P6SM SCT120=



000
FTUS43 KICT 040909 AAB
TAFICT
TAF AMD
KICT 040909Z 0409/0506 02018G28KT 5SM -SN OVC035
      TEMPO 0409/0413 3SM -SN BR OVC020
     FM041900 02013KT P6SM SCT020 BKN100
     FM050000 01007KT P6SM SCT120=



000
FTUS43 KICT 040815 AAA
TAFSLN
TAF AMD
KSLN 040815Z 0408/0506 01017G26KT P6SM OVC035
      TEMPO 0409/0413 4SM -SN BR OVC020
     FM041700 01013KT P6SM SCT020 BKN100
     FM042300 01005KT P6SM SCT120=



000
FTUS43 KICT 040815 AAA
TAFSLN
TAF AMD
KSLN 040815Z 0408/0506 01017G26KT P6SM OVC035
      TEMPO 0409/0413 4SM -SN BR OVC020
     FM041700 01013KT P6SM SCT020 BKN100
     FM042300 01005KT P6SM SCT120=



000
FTUS43 KICT 040813 AAA
TAFRSL
TAF AMD
KRSL 040813Z 0408/0506 02017G25KT P6SM OVC035
      TEMPO 0409/0413 5SM -SN BR OVC025
     FM041600 01014KT P6SM SCT025 BKN100
     FM042200 01005KT P6SM SCT120=



000
FTUS43 KICT 040809 AAA
TAFHUT
TAF AMD
KHUT 040809Z 0408/0506 01017G26KT 6SM -SN OVC035
      TEMPO 0408/0412 3SM -SN OVC020
     FM041800 02013KT P6SM SCT020 BKN100
     FM050000 01007KT P6SM SCT120=



000
FTUS43 KICT 040709 AAA
TAFICT
TAF AMD
KICT 040709Z 0407/0506 02015G22KT P6SM OVC035
      TEMPO 0407/0409 4SM -SN OVC025
     FM040900 02017G25KT 4SM -SN OVC022
      TEMPO 0411/0415 2SM -SN OVC012
     FM041900 02013KT P6SM SCT020 BKN100
     FM050000 01007KT P6SM SCT120=



000
FTUS43 KICT 040709 AAA
TAFICT
TAF AMD
KICT 040709Z 0407/0506 02015G22KT P6SM OVC035
      TEMPO 0407/0409 4SM -SN OVC025
     FM040900 02017G25KT 4SM -SN OVC022
      TEMPO 0411/0415 2SM -SN OVC012
     FM041900 02013KT P6SM SCT020 BKN100
     FM050000 01007KT P6SM SCT120=



000
FTUS43 KICT 040527 CCA
TAFHUT
TAF COR
KHUT 040527Z 0406/0506 01009KT P6SM SCT040 OVC060
     FM040900 02017G25KT 3SM -SN OVC022
      TEMPO 0411/0415 1SM -SN OVC012
     FM041800 02013KT P6SM SCT020 BKN100
     FM050000 01007KT P6SM SCT120=



000
FTUS43 KICT 040527 CCA
TAFHUT
TAF COR
KHUT 040527Z 0406/0506 01009KT P6SM SCT040 OVC060
     FM040900 02017G25KT 3SM -SN OVC022
      TEMPO 0411/0415 1SM -SN OVC012
     FM041800 02013KT P6SM SCT020 BKN100
     FM050000 01007KT P6SM SCT120=



000
FTUS43 KICT 040521
TAFCNU
TAF
KCNU 040521Z 0406/0506 01014KT P6SM -RA OVC035
      TEMPO 0407/0411 5SM -FZRAPL OVC025
     FM041100 01016G23KT 3SM -SN OVC018
     FM042100 02011KT P6SM SCT020 BKN100=



000
FTUS43 KICT 040521
TAFHUT
TAF
KHUT 040521Z 0406/0506 02015G22KT P6SM BKN035
     FM040900 02016G23KT 3SM -SN OVC022
      TEMPO 0411/0415 1SM -SN OVC012
     FM041800 02011KT P6SM SCT020 BKN100
     FM050000 01006KT P6SM SCT120=



000
FTUS43 KICT 040521
TAFRSL
TAF
KRSL 040521Z 0406/0506 01014KT P6SM BKN035 OVC090
     FM040800 02014KT 3SM -SN OVC022
     FM041600 01014KT P6SM SCT025 BKN100
     FM042200 01005KT P6SM SCT120=



000
FTUS43 KICT 040521
TAFSLN
TAF
KSLN 040521Z 0406/0506 01015G22KT P6SM OVC035
     FM040900 01015G22KT 3SM -SN OVC025
      TEMPO 0411/0413 1SM -SN OVC015
     FM041700 01013KT P6SM SCT020 BKN100
     FM042300 01005KT P6SM SCT120=



000
FTUS43 KICT 040521
TAFICT
TAF
KICT 040521Z 0406/0506 02015G22KT P6SM OVC035
     FM040900 02017G25KT 3SM -SN OVC022
      TEMPO 0411/0415 1SM -SN OVC012
     FM041900 02013KT P6SM SCT020 BKN100
     FM050000 01007KT P6SM SCT120=



000
FTUS43 KICT 032338
TAFHUT
TAF
KHUT 032338Z 0400/0424 01013KT P6SM SCT035 OVC100
     FM040300 02015G22KT P6SM BKN035
     FM040800 02017G25KT 3SM -SN OVC022
      TEMPO 0410/0414 1SM -SN OVC012
     FM041800 02011KT P6SM SCT020 BKN100=



000
FTUS43 KICT 032338
TAFRSL
TAF
KRSL 032338Z 0400/0424 01014KT P6SM SCT035 BKN100
     FM040500 01015G22KT P6SM BKN035 OVC090
     FM040800 02015G22KT 4SM -SN OVC022
     FM041600 01015G22KT P6SM SCT025 BKN100=



000
FTUS43 KICT 032338
TAFCNU
TAF
KCNU 032338Z 0400/0424 35012KT P6SM OVC025
      TEMPO 0401/0405 6SM -RA
     FM040500 01014KT 5SM -FZRAPL OVC025
     FM041100 01016G23KT 3SM -SN OVC018
     FM042100 02011KT P6SM SCT020 BKN100=



000
FTUS43 KICT 032338
TAFICT
TAF
KICT 032338Z 0400/0424 01013KT P6SM SCT035 OVC100
     FM040300 02015G22KT P6SM OVC035
     FM040800 02017G25KT 3SM -SN OVC022
      TEMPO 0410/0414 1SM -SN OVC012
     FM041900 02013KT P6SM SCT020 BKN100=



000
FTUS43 KICT 032338
TAFSLN
TAF
KSLN 032338Z 0400/0424 36015G22KT P6SM BKN110
     FM040600 01016G23KT P6SM OVC035
     FM040900 01016G23KT 4SM -SN OVC025
     FM041700 01013KT P6SM SCT025 BKN100=



000
FTUS43 KICT 032338
TAFSLN
TAF
KSLN 032338Z 0400/0424 36015G22KT P6SM BKN110
     FM040600 01016G23KT P6SM OVC035
     FM040900 01016G23KT 4SM -SN OVC025
     FM041700 01013KT P6SM SCT025 BKN100=



000
FTUS43 KICT 032338
TAFRSL
TAF
KRSL 032338Z 0400/0424 01014KT P6SM SCT035 BKN100
     FM040500 01015G22KT P6SM BKN035 OVC090
     FM040800 02015G22KT 4SM -SN OVC022
     FM041600 01015G22KT P6SM SCT025 BKN100=



000
FTUS43 KICT 032338
TAFICT
TAF
KICT 032338Z 0400/0424 01013KT P6SM SCT035 OVC100
     FM040300 02015G22KT P6SM OVC035
     FM040800 02017G25KT 3SM -SN OVC022
      TEMPO 0410/0414 1SM -SN OVC012
     FM041900 02013KT P6SM SCT020 BKN100=



000
FTUS43 KICT 032338
TAFCNU
TAF
KCNU 032338Z 0400/0424 35012KT P6SM OVC025
      TEMPO 0401/0405 6SM -RA
     FM040500 01014KT 5SM -FZRAPL OVC025
     FM041100 01016G23KT 3SM -SN OVC018
     FM042100 02011KT P6SM SCT020 BKN100=



000
FTUS43 KICT 032338
TAFHUT
TAF
KHUT 032338Z 0400/0424 01013KT P6SM SCT035 OVC100
     FM040300 02015G22KT P6SM BKN035
     FM040800 02017G25KT 3SM -SN OVC022
      TEMPO 0410/0414 1SM -SN OVC012
     FM041800 02011KT P6SM SCT020 BKN100=



000
FTUS43 KICT 032128 AAA
TAFSLN
TAF AMD
KSLN 032128Z 0321/0418 36016G22KT P6SM SCT035
     FM040400 02017G24KT P6SM BKN045
     FM040900 02017G24KT 4SM -SN SCT015 OVC025=



000
FTUS43 KICT 032127 AAA
TAFRSL
TAF AMD
KRSL 032127Z 0321/0418 36016G23KT P6SM SCT035
     FM040400 02017G24KT P6SM BKN045
     FM040800 02017G24KT 4SM -SN SCT015 OVC025=



000
FTUS43 KICT 032125 AAA
TAFCNU
TAF AMD
KCNU 032125Z 0321/0418 25011KT P6SM BKN030 OVC100
     FM032245 35012G18KT P6SM SCT030 OVC100
     FM040200 02015G21KT P6SM VCSH SCT030 BKN045
     FM040600 02016G22KT P6SM -FZRAPLSN SCT015 OVC030
     FM041300 02016G22KT 3SM -FZDZSN OVC015=



000
FTUS43 KICT 032112 CCA
TAFICT
TAF COR
KICT 032112Z 0321/0418 36015G21KT P6SM BKN120 OVC200
     FM040400 02016G22KT P6SM BKN045
     FM040900 02018G26KT 3SM -SN OVC015=



000
FTUS43 KICT 032112 CCA
TAFICT
TAF COR
KICT 032112Z 0321/0418 36015G21KT P6SM BKN120 OVC200
     FM040400 02016G22KT P6SM BKN045
     FM040900 02018G26KT 3SM -SN OVC015=



000
FTUS43 KICT 032111 AAB
TAFHUT
TAF AMD
KHUT 032111Z 0321/0418 36015G21KT P6SM BKN120 OVC200
     FM040400 02016G22KT P6SM BKN045
     FM040900 02018G26KT 3SM -SN OVC015=



000
FTUS43 KICT 032107 AAC
TAFICT
TAF AMD
KICT 032107Z 0321/0418 36015G21KT P6SM BKN120 OVC200
     FM040900 02018G26KT 3SM -SN OVC015=



000
FTUS43 KICT 031914 AAB
TAFICT
TAF AMD
KICT 031914Z 0319/0418 35017G25KT P6SM SCT030 OVC250
     FM040800 02019G26KT P6SM OVC025
     FM041100 02018G22KT 5SM -SN SCT006 OVC025=



000
FTUS43 KICT 031759 AAA
TAFHUT
TAF AMD
KHUT 031759Z 0318/0418 36017G25KT P6SM SCT030 OVC250
     FM040900 02018G27KT P6SM OVC025
     FM041100 02018G22KT 5SM -SN SCT006 OVC025=



000
FTUS43 KICT 031731
TAFICT
TAF
KICT 031731Z 0318/0418 27015KT P6SM SCT030 OVC250
     FM032000 35017G25KT P6SM SCT030 OVC250
     FM040800 02019G26KT P6SM OVC025
     FM041100 02018G22KT 5SM -SN SCT006 OVC025=



000
FTUS43 KICT 031731
TAFCNU
TAF
KCNU 031731Z 0318/0418 23017G25KT P6SM OVC010
     FM032100 28015G22KT P6SM SCT012 OVC250
     FM032300 36017G25KT P6SM SCT035 OVC250
     FM040900 02016G25KT 6SM -SN SCT006 OVC025=



000
FTUS43 KICT 031731
TAFSLN
TAF
KSLN 031731Z 0318/0418 35022G32KT P6SM SCT035
     FM040200 02016G24KT P6SM SCT250
     FM041100 02015KT P6SM -SN SCT015 OVC030=



000
FTUS43 KICT 031731
TAFRSL
TAF
KRSL 031731Z 0318/0418 35022G32KT P6SM SCT035
     FM040100 02016G24KT P6SM SCT250
     FM041100 02015KT P6SM -SN SCT015 OVC030=



000
FTUS43 KICT 031731
TAFHUT
TAF
KHUT 031731Z 0318/0418 32017KT P6SM SCT030 OVC250
     FM031900 35017G25KT P6SM SCT030 OVC250
     FM040900 02018G27KT P6SM OVC025
     FM041100 02018G22KT 5SM -SN SCT006 OVC025=



000
FTUS43 KICT 031731
TAFHUT
TAF
KHUT 031731Z 0318/0418 32017KT P6SM SCT030 OVC250
     FM031900 35017G25KT P6SM SCT030 OVC250
     FM040900 02018G27KT P6SM OVC025
     FM041100 02018G22KT 5SM -SN SCT006 OVC025=



000
FTUS43 KICT 031731
TAFCNU
TAF
KCNU 031731Z 0318/0418 23017G25KT P6SM OVC010
     FM032100 28015G22KT P6SM SCT012 OVC250
     FM032300 36017G25KT P6SM SCT035 OVC250
     FM040900 02016G25KT 6SM -SN SCT006 OVC025=



000
FTUS43 KICT 031731
TAFRSL
TAF
KRSL 031731Z 0318/0418 35022G32KT P6SM SCT035
     FM040100 02016G24KT P6SM SCT250
     FM041100 02015KT P6SM -SN SCT015 OVC030=



000
FTUS43 KICT 031731
TAFICT
TAF
KICT 031731Z 0318/0418 27015KT P6SM SCT030 OVC250
     FM032000 35017G25KT P6SM SCT030 OVC250
     FM040800 02019G26KT P6SM OVC025
     FM041100 02018G22KT 5SM -SN SCT006 OVC025=



000
FTUS43 KICT 031731
TAFSLN
TAF
KSLN 031731Z 0318/0418 35022G32KT P6SM SCT035
     FM040200 02016G24KT P6SM SCT250
     FM041100 02015KT P6SM -SN SCT015 OVC030=



000
FTUS43 KICT 031603 AAA
TAFHUT
TAF AMD
KHUT 031603Z 0316/0412 28017G25KT P6SM SCT020 BKN250
     FM031700 33017G25KT P6SM SCT030 OVC250
     FM040900 02018G27KT P6SM BKN035=



000
FTUS43 KICT 031541 AAB
TAFCNU
TAF AMD
KCNU 031541Z 0316/0412 22017G25KT 4SM -DZ BR OVC004
     FM031700 22018G26KT 5SM BR OVC009
     FM031800 22020G28KT P6SM BKN035
     FM032300 36017G25KT P6SM SCT035 OVC250=



000
FTUS43 KICT 031541 AAB
TAFCNU
TAF AMD
KCNU 031541Z 0316/0412 22017G25KT 4SM -DZ BR OVC004
     FM031700 22018G26KT 5SM BR OVC009
     FM031800 22020G28KT P6SM BKN035
     FM032300 36017G25KT P6SM SCT035 OVC250=



000
FTUS43 KICT 031501 AAA
TAFSLN
TAF AMD
KSLN 031501Z 0315/0412 26018G26KT P6SM SCT020 BKN250
     FM031600 34022G32KT P6SM SCT035
     FM032300 02016G24KT P6SM SCT250=



000
FTUS43 KICT 031429 AAA
TAFCNU
TAF AMD
KCNU 031429Z 0314/0412 21017G25KT 2SM -DZ BR OVC002
     FM031530 21018G26KT 5SM BR OVC012
     FM031800 22020G28KT P6SM BKN035
     FM032300 36017G25KT P6SM SCT035 OVC250=



000
FTUS43 KICT 031429 AAA
TAFCNU
TAF AMD
KCNU 031429Z 0314/0412 21017G25KT 2SM -DZ BR OVC002
     FM031530 21018G26KT 5SM BR OVC012
     FM031800 22020G28KT P6SM BKN035
     FM032300 36017G25KT P6SM SCT035 OVC250=



000
FTUS43 KICT 031419 AAA
TAFRSL
TAF AMD
KRSL 031419Z 0314/0412 30015G23KT P6SM BKN250
     FM031600 35022G32KT P6SM SCT035
     FM032300 02016G24KT P6SM SCT250=



000
FTUS43 KICT 031419 AAA
TAFRSL
TAF AMD
KRSL 031419Z 0314/0412 30015G23KT P6SM BKN250
     FM031600 35022G32KT P6SM SCT035
     FM032300 02016G24KT P6SM SCT250=



000
FTUS43 KICT 031126
TAFRSL
TAF
KRSL 031126Z 0312/0412 23015G23KT P6SM BKN250
     FM031600 35022G32KT P6SM SCT035
     FM032300 02016G24KT P6SM SCT250=



000
FTUS43 KICT 031126
TAFRSL
TAF
KRSL 031126Z 0312/0412 23015G23KT P6SM BKN250
     FM031600 35022G32KT P6SM SCT035
     FM032300 02016G24KT P6SM SCT250=



000
FTUS43 KICT 031126
TAFCNU
TAF
KCNU 031126Z 0312/0412 18017G25KT 2SM -DZ BR OVC003
     FM031500 20018G26KT 5SM BR OVC012
     FM031800 22020G28KT P6SM BKN035
     FM032300 36017G25KT P6SM SCT035 OVC250=



000
FTUS43 KICT 031126
TAFSLN
TAF
KSLN 031126Z 0312/0412 21019G27KT P6SM SCT020 BKN250
     FM031700 35022G32KT P6SM SCT035
     FM032300 02016G24KT P6SM SCT250=



000
FTUS43 KICT 031126
TAFHUT
TAF
KHUT 031126Z 0312/0412 21019G27KT P6SM OVC015
     FM031330 23017G25KT P6SM SCT020 BKN250
     FM031800 36017G25KT P6SM SCT030 OVC250
     FM040900 02018G27KT P6SM BKN035=



000
FTUS43 KICT 031126
TAFICT
TAF
KICT 031126Z 0312/0412 20019G27KT 5SM BR OVC008
     FM031330 21017G25KT P6SM BKN020
     FM031500 23017G25KT P6SM SCT020 BKN250
     FM031930 36017G25KT P6SM SCT030 OVC250
     FM041000 02018G27KT P6SM BKN035=



000
FTUS43 KICT 031126
TAFCNU
TAF
KCNU 031126Z 0312/0412 18017G25KT 2SM -DZ BR OVC003
     FM031500 20018G26KT 5SM BR OVC012
     FM031800 22020G28KT P6SM BKN035
     FM032300 36017G25KT P6SM SCT035 OVC250=



000
FTUS43 KICT 031126
TAFICT
TAF
KICT 031126Z 0312/0412 20019G27KT 5SM BR OVC008
     FM031330 21017G25KT P6SM BKN020
     FM031500 23017G25KT P6SM SCT020 BKN250
     FM031930 36017G25KT P6SM SCT030 OVC250
     FM041000 02018G27KT P6SM BKN035=



000
FTUS43 KICT 031126
TAFHUT
TAF
KHUT 031126Z 0312/0412 21019G27KT P6SM OVC015
     FM031330 23017G25KT P6SM SCT020 BKN250
     FM031800 36017G25KT P6SM SCT030 OVC250
     FM040900 02018G27KT P6SM BKN035=



000
FTUS43 KICT 031126
TAFSLN
TAF
KSLN 031126Z 0312/0412 21019G27KT P6SM SCT020 BKN250
     FM031700 35022G32KT P6SM SCT035
     FM032300 02016G24KT P6SM SCT250=



000
FTUS43 KICT 030547 CCA
TAFICT
TAF COR
KICT 030547Z 0306/0406 18019G27KT 2SM -DZ BR OVC004
      TEMPO 0309/0313 3SM BR OVC006
     FM031300 20019G27KT 4SM BR BKN010 OVC250
     FM031500 23017G25KT P6SM SCT020 BKN250
     FM031900 36017G25KT P6SM BKN030 OVC250
     FM040000 01013KT P6SM SCT030 BKN250=



000
FTUS43 KICT 030547 CCA
TAFICT
TAF COR
KICT 030547Z 0306/0406 18019G27KT 2SM -DZ BR OVC004
      TEMPO 0309/0313 3SM BR OVC006
     FM031300 20019G27KT 4SM BR BKN010 OVC250
     FM031500 23017G25KT P6SM SCT020 BKN250
     FM031900 36017G25KT P6SM BKN030 OVC250
     FM040000 01013KT P6SM SCT030 BKN250=



000
FTUS43 KICT 030536
TAFRSL
TAF
KRSL 030536Z 0306/0406 19020G28KT 5SM BR OVC014
     FM031100 24020G28KT P6SM SCT020
     FM031600 35022G32KT P6SM SCT025
      TEMPO 0316/0320 BKN025
     FM032300 36012KT P6SM SCT250=



000
FTUS43 KICT 030536
TAFCNU
TAF
KCNU 030536Z 0306/0406 18015G22KT 2SM -DZ BR OVC004
      TEMPO 0310/0314 3SM BR OVC006
     FM031400 20018G26KT 5SM BR OVC012
     FM031700 22020G28KT P6SM OVC022
     FM032100 35017G25KT P6SM BKN030 OVC250=



000
FTUS43 KICT 030536
TAFHUT
TAF
KHUT 030536Z 0306/0406 18019G27KT 4SM BR OVC008
      TEMPO 0309/0313 OVC012
     FM031300 23019G27KT P6SM SCT020 BKN250
     FM031800 36017G25KT P6SM BKN030 OVC250
     FM040000 01012KT P6SM SCT030 BKN250=



000
FTUS43 KICT 030536
TAFSLN
TAF
KSLN 030536Z 0306/0406 19018G26KT 5SM BR OVC012
      TEMPO 0307/0311 OVC007
     FM031200 23019G27KT P6SM SCT020 BKN250
     FM031700 35019G27KT P6SM BKN030
     FM032300 36013KT P6SM FEW035 SCT250=



000
FTUS43 KICT 030536
TAFICT
TAF
KICT 030536Z 0306/0406 18019G27KT 2SM BR OVC004
      TEMPO 0309/0313 3SM BR OVC006
     FM031300 20019G27KT 4SM BR BKN010 OVC250
     FM031500 23017G25KT P6SM SCT020 BKN250
     FM031900 36017G25KT P6SM BKN030 OVC250
     FM040000 01013KT P6SM SCT030 BKN250=



000
FTUS43 KICT 030536
TAFRSL
TAF
KRSL 030536Z 0306/0406 19020G28KT 5SM BR OVC014
     FM031100 24020G28KT P6SM SCT020
     FM031600 35022G32KT P6SM SCT025
      TEMPO 0316/0320 BKN025
     FM032300 36012KT P6SM SCT250=



000
FTUS43 KICT 030536
TAFICT
TAF
KICT 030536Z 0306/0406 18019G27KT 2SM BR OVC004
      TEMPO 0309/0313 3SM BR OVC006
     FM031300 20019G27KT 4SM BR BKN010 OVC250
     FM031500 23017G25KT P6SM SCT020 BKN250
     FM031900 36017G25KT P6SM BKN030 OVC250
     FM040000 01013KT P6SM SCT030 BKN250=



000
FTUS43 KICT 030536
TAFSLN
TAF
KSLN 030536Z 0306/0406 19018G26KT 5SM BR OVC012
      TEMPO 0307/0311 OVC007
     FM031200 23019G27KT P6SM SCT020 BKN250
     FM031700 35019G27KT P6SM BKN030
     FM032300 36013KT P6SM FEW035 SCT250=



000
FTUS43 KICT 030536
TAFHUT
TAF
KHUT 030536Z 0306/0406 18019G27KT 4SM BR OVC008
      TEMPO 0309/0313 OVC012
     FM031300 23019G27KT P6SM SCT020 BKN250
     FM031800 36017G25KT P6SM BKN030 OVC250
     FM040000 01012KT P6SM SCT030 BKN250=



000
FTUS43 KICT 030536
TAFCNU
TAF
KCNU 030536Z 0306/0406 18015G22KT 2SM -DZ BR OVC004
      TEMPO 0310/0314 3SM BR OVC006
     FM031400 20018G26KT 5SM BR OVC012
     FM031700 22020G28KT P6SM OVC022
     FM032100 35017G25KT P6SM BKN030 OVC250=



000
FTUS43 KICT 030352 AAA
TAFICT
TAF AMD
KICT 030352Z 0304/0324 18016G23KT 3SM BR OVC006
      TEMPO 0304/0308 2SM BR OVC004
     FM031300 20018G26KT 4SM BR BKN010 OVC250
     FM031500 23018G26KT P6SM SCT020 BKN250
     FM031900 36017G25KT P6SM BKN030 OVC250=



000
FTUS43 KICT 030352 AAA
TAFICT
TAF AMD
KICT 030352Z 0304/0324 18016G23KT 3SM BR OVC006
      TEMPO 0304/0308 2SM BR OVC004
     FM031300 20018G26KT 4SM BR BKN010 OVC250
     FM031500 23018G26KT P6SM SCT020 BKN250
     FM031900 36017G25KT P6SM BKN030 OVC250=



000
FTUS43 KICT 022359 CCA
TAFCNU
TAF COR
KCNU 022359Z 0300/0324 16009KT P6SM OVC018
     FM030400 17013KT 3SM BR OVC008
     FM030800 18015G22KT 2SM -DZ OVC006
     FM031500 21019G26KT 5SM BR OVC018
     FM031700 22020G28KT P6SM OVC025
     FM032100 35017G25KT P6SM BKN030 OVC250=



000
FTUS43 KICT 022359 CCA
TAFCNU
TAF COR
KCNU 022359Z 0300/0324 16009KT P6SM OVC018
     FM030400 17013KT 3SM BR OVC008
     FM030800 18015G22KT 2SM -DZ OVC006
     FM031500 21019G26KT 5SM BR OVC018
     FM031700 22020G28KT P6SM OVC025
     FM032100 35017G25KT P6SM BKN030 OVC250=



000
FTUS43 KICT 022358 CCA
TAFICT
TAF COR
KICT 022358Z 0300/0324 16013KT P6SM BKN016 OVC100
     FM030400 18016G23KT 3SM BR OVC008
     FM031500 23018G26KT P6SM SCT020 BKN250
     FM031900 36017G25KT P6SM BKN030 OVC250=



000
FTUS43 KICT 022358 CCA
TAFICT
TAF COR
KICT 022358Z 0300/0324 16013KT P6SM BKN016 OVC100
     FM030400 18016G23KT 3SM BR OVC008
     FM031500 23018G26KT P6SM SCT020 BKN250
     FM031900 36017G25KT P6SM BKN030 OVC250=



000
FTUS43 KICT 022332
TAFCNU
TAF
KCNU 022332Z 0300/0324 16009KT P6SM OVC020
     FM030400 17013KT 4SM BR OVC010
     FM030800 18015G22KT 2SM -DZ OVC008
     FM031500 21019G26KT 5SM BR OVC018
     FM031700 22020G28KT P6SM OVC025
     FM032100 35017G25KT P6SM BKN030 OVC250=



000
FTUS43 KICT 022332
TAFICT
TAF
KICT 022332Z 0300/0324 16013KT P6SM BKN020 OVC100
     FM030400 18016G23KT 4SM BR OVC010
     FM031500 23018G26KT P6SM SCT020 BKN250
     FM031900 36017G25KT P6SM BKN030 OVC250=



000
FTUS43 KICT 022332
TAFSLN
TAF
KSLN 022332Z 0300/0324 17016G23KT P6SM OVC150
     FM030600 19018G26KT 5SM BR OVC014
     FM031400 24020G28KT P6SM SCT020 BKN250
     FM031700 35019G27KT P6SM BKN030=



000
FTUS43 KICT 022332
TAFHUT
TAF
KHUT 022332Z 0300/0324 17013KT P6SM OVC100
     FM030400 18016G23KT 5SM BR BKN012 OVC100
     FM031400 23018G26KT P6SM SCT020 BKN250
     FM031800 36017G25KT P6SM BKN030 OVC250=



000
FTUS43 KICT 022332
TAFRSL
TAF
KRSL 022332Z 0300/0324 17018G26KT P6SM SCT020 OVC150
     FM030500 19020G28KT 5SM BR OVC014
     FM031200 24020G28KT P6SM SCT020
     FM031600 35022G32KT P6SM SCT025
      TEMPO 0316/0320 BKN025=



    US Dept of Commerce
    National Oceanic and Atmospheric Administration
    National Weather Service
    1325 East West Highway
    Silver Spring, MD 20910
    Page Author: NWS Internet Services Team
Disclaimer
Information Quality
Credits
Glossary
Privacy Policy
Freedom of Information Act (FOIA)
About Us
Career Opportunities